HKE563 VVDN-VHHH
Flight info
| Callsign | HKE563 |
|---|---|
| Flight time | 1h 18m |
| Altitude | 33000 |
| Route | BUNTA A1 LENKO/K0882F330 A1 IKELA/N0476F330 P901 IDOSI V561 MYWAY/N0469F350 V561 CANTO |
| Aircraft | A21N/M-SDE3GHIJ3J7M3P2RWYZ/LB2D1 |
Departure
| Time | 2026-05-05 01:32 |
|---|---|
| Airport | Da Nang International Airport (VVDN) |
Arrival
| Time | 2026-05-05 02:50 |
|---|---|
| Airport | Hong Kong International Airport (VHHH) |
| Time | Latitude | Longitude | Altitude | Speed | Heading |
|---|---|---|---|---|---|
| 2026-05-05 00:50 | 16.05596 | 108.20145 | 40 ft | 0 kts | 81° |
| 2026-05-05 01:21 | 16.05595 | 108.20137 | 40 ft | 0 kts | 81° |
| 2026-05-05 01:21 | 16.05592 | 108.20109 | 40 ft | 0 kts | 84° |
| 2026-05-05 01:21 | 16.05589 | 108.20081 | 40 ft | 4 kts | 88° |
| 2026-05-05 01:22 | 16.05589 | 108.20053 | 40 ft | 0 kts | 94° |
| 2026-05-05 01:22 | 16.05593 | 108.20025 | 40 ft | 0 kts | 110° |
| 2026-05-05 01:22 | 16.05606 | 108.20007 | 38 ft | 0 kts | 165° |
| 2026-05-05 01:22 | 16.05614 | 108.20005 | 40 ft | 0 kts | 172° |
| 2026-05-05 01:25 | 16.05608 | 108.20006 | 40 ft | 2 kts | 172° |
| 2026-05-05 01:25 | 16.05583 | 108.20009 | 40 ft | 5 kts | 173° |
| 2026-05-05 01:25 | 16.05536 | 108.20015 | 39 ft | 8 kts | 173° |
| 2026-05-05 01:26 | 16.05468 | 108.20024 | 39 ft | 11 kts | 173° |
| 2026-05-05 01:26 | 16.05379 | 108.20036 | 39 ft | 14 kts | 172° |
| 2026-05-05 01:26 | 16.05275 | 108.20053 | 39 ft | 16 kts | 170° |
| 2026-05-05 01:26 | 16.05154 | 108.20070 | 40 ft | 18 kts | 172° |
| 2026-05-05 01:27 | 16.05021 | 108.20089 | 39 ft | 20 kts | 173° |
| 2026-05-05 01:27 | 16.04877 | 108.20110 | 39 ft | 21 kts | 172° |
| 2026-05-05 01:27 | 16.04726 | 108.20134 | 39 ft | 23 kts | 172° |
| 2026-05-05 01:27 | 16.04566 | 108.20157 | 39 ft | 24 kts | 171° |
| 2026-05-05 01:28 | 16.04398 | 108.20182 | 39 ft | 25 kts | 172° |
| 2026-05-05 01:28 | 16.04222 | 108.20207 | 39 ft | 26 kts | 172° |
| 2026-05-05 01:28 | 16.04066 | 108.20229 | 40 ft | 21 kts | 172° |
| 2026-05-05 01:28 | 16.03919 | 108.20249 | 40 ft | 22 kts | 171° |
| 2026-05-05 01:29 | 16.03766 | 108.20273 | 40 ft | 23 kts | 171° |
| 2026-05-05 01:29 | 16.03603 | 108.20294 | 40 ft | 24 kts | 173° |
| 2026-05-05 01:29 | 16.03436 | 108.20320 | 39 ft | 25 kts | 172° |
| 2026-05-05 01:29 | 16.03266 | 108.20345 | 38 ft | 17 kts | 172° |
| 2026-05-05 01:30 | 16.03145 | 108.20362 | 38 ft | 18 kts | 172° |
| 2026-05-05 01:30 | 16.03023 | 108.20379 | 38 ft | 11 kts | 172° |
| 2026-05-05 01:30 | 16.02959 | 108.20362 | 38 ft | 10 kts | 208° |
| 2026-05-05 01:30 | 16.02918 | 108.20304 | 37 ft | 10 kts | 269° |
| 2026-05-05 01:31 | 16.02965 | 108.20248 | 36 ft | 12 kts | 340° |
| 2026-05-05 01:31 | 16.03052 | 108.20237 | 36 ft | 18 kts | 352° |
| 2026-05-05 01:31 | 16.03407 | 108.20185 | 38 ft | 88 kts | 352° |
| 2026-05-05 01:31 | 16.04232 | 108.20064 | 39 ft | 149 kts | 352° |
| 2026-05-05 01:32 | 16.05398 | 108.19898 | 224 ft | 177 kts | 352° |
| 2026-05-05 01:32 | 16.06601 | 108.19754 | 936 ft | 171 kts | 354° |
| 2026-05-05 01:32 | 16.07835 | 108.19679 | 1439 ft | 186 kts | 358° |
| 2026-05-05 01:32 | 16.09197 | 108.19652 | 1961 ft | 205 kts | 359° |
| 2026-05-05 01:33 | 16.10679 | 108.19628 | 2501 ft | 225 kts | 359° |
| 2026-05-05 01:33 | 16.12333 | 108.19600 | 2964 ft | 248 kts | 359° |
| 2026-05-05 01:33 | 16.14106 | 108.19571 | 3593 ft | 261 kts | 359° |
| 2026-05-05 01:33 | 16.15948 | 108.19540 | 4413 ft | 267 kts | 359° |
| 2026-05-05 01:34 | 16.17818 | 108.19510 | 5246 ft | 270 kts | 360° |
| 2026-05-05 01:34 | 16.19702 | 108.19479 | 6074 ft | 273 kts | 360° |
| 2026-05-05 01:34 | 16.21639 | 108.19447 | 6838 ft | 278 kts | 360° |
| 2026-05-05 01:34 | 16.23594 | 108.19416 | 7569 ft | 282 kts | 360° |
| 2026-05-05 01:35 | 16.25564 | 108.19383 | 8338 ft | 285 kts | 359° |
| 2026-05-05 01:35 | 16.27562 | 108.19350 | 9121 ft | 288 kts | 359° |
| 2026-05-05 01:35 | 16.29581 | 108.19373 | 9884 ft | 292 kts | 5° |
| 2026-05-05 01:35 | 16.31554 | 108.19864 | 10376 ft | 304 kts | 23° |
| 2026-05-05 01:36 | 16.33368 | 108.21111 | 10655 ft | 324 kts | 44° |
| 2026-05-05 01:36 | 16.34682 | 108.23085 | 10906 ft | 344 kts | 66° |
| 2026-05-05 01:36 | 16.35465 | 108.25509 | 11168 ft | 362 kts | 73° |
| 2026-05-05 01:36 | 16.36176 | 108.28082 | 11415 ft | 379 kts | 73° |
| 2026-05-05 01:37 | 16.36940 | 108.30770 | 11718 ft | 392 kts | 73° |
| 2026-05-05 01:37 | 16.37745 | 108.33503 | 12239 ft | 397 kts | 72° |
| 2026-05-05 01:37 | 16.38569 | 108.36261 | 12801 ft | 400 kts | 72° |
| 2026-05-05 01:37 | 16.39404 | 108.39038 | 13345 ft | 404 kts | 72° |
| 2026-05-05 01:38 | 16.40252 | 108.41836 | 13861 ft | 408 kts | 72° |
| 2026-05-05 01:38 | 16.41104 | 108.44668 | 14300 ft | 411 kts | 73° |
| 2026-05-05 01:38 | 16.41946 | 108.47528 | 14755 ft | 415 kts | 73° |
| 2026-05-05 01:38 | 16.42798 | 108.50404 | 15208 ft | 418 kts | 72° |
| 2026-05-05 01:39 | 16.43683 | 108.53309 | 15646 ft | 421 kts | 72° |
| 2026-05-05 01:39 | 16.44579 | 108.56222 | 16085 ft | 424 kts | 72° |
| 2026-05-05 01:39 | 16.45448 | 108.59166 | 16519 ft | 427 kts | 74° |
| 2026-05-05 01:39 | 16.46282 | 108.62146 | 16945 ft | 430 kts | 74° |
| 2026-05-05 01:40 | 16.47111 | 108.65144 | 17365 ft | 432 kts | 74° |
| 2026-05-05 01:40 | 16.47944 | 108.68165 | 17791 ft | 435 kts | 74° |
| 2026-05-05 01:40 | 16.48783 | 108.71213 | 18192 ft | 438 kts | 74° |
| 2026-05-05 01:40 | 16.49627 | 108.74273 | 18547 ft | 441 kts | 74° |
| 2026-05-05 01:41 | 16.50477 | 108.77348 | 18889 ft | 443 kts | 74° |
| 2026-05-05 01:41 | 16.51332 | 108.80449 | 19245 ft | 446 kts | 74° |
| 2026-05-05 01:41 | 16.52189 | 108.83567 | 19599 ft | 449 kts | 74° |
| 2026-05-05 01:41 | 16.53052 | 108.86703 | 19957 ft | 451 kts | 74° |
| 2026-05-05 01:42 | 16.53920 | 108.89856 | 20316 ft | 454 kts | 74° |
| 2026-05-05 01:42 | 16.54784 | 108.93030 | 20682 ft | 456 kts | 74° |
| 2026-05-05 01:42 | 16.55732 | 108.96191 | 21034 ft | 459 kts | 69° |
| 2026-05-05 01:42 | 16.57163 | 108.99178 | 21386 ft | 462 kts | 57° |
| 2026-05-05 01:43 | 16.58942 | 109.01973 | 21761 ft | 464 kts | 55° |
| 2026-05-05 01:43 | 16.60778 | 109.04762 | 22148 ft | 468 kts | 55° |
| 2026-05-05 01:43 | 16.62619 | 109.07563 | 22523 ft | 471 kts | 55° |
| 2026-05-05 01:43 | 16.64464 | 109.10394 | 22882 ft | 474 kts | 55° |
| 2026-05-05 01:44 | 16.66324 | 109.13252 | 23233 ft | 477 kts | 55° |
| 2026-05-05 01:44 | 16.68186 | 109.16119 | 23557 ft | 479 kts | 55° |
| 2026-05-05 01:44 | 16.70059 | 109.19012 | 23813 ft | 482 kts | 55° |
| 2026-05-05 01:44 | 16.71944 | 109.21918 | 24078 ft | 484 kts | 55° |
| 2026-05-05 01:45 | 16.73841 | 109.24838 | 24352 ft | 486 kts | 55° |
| 2026-05-05 01:45 | 16.75739 | 109.27765 | 24620 ft | 489 kts | 55° |
| 2026-05-05 01:45 | 16.77646 | 109.30708 | 24886 ft | 491 kts | 55° |
| 2026-05-05 01:45 | 16.79535 | 109.33629 | 25137 ft | 493 kts | 55° |
| 2026-05-05 01:46 | 16.81478 | 109.36636 | 25389 ft | 495 kts | 55° |
| 2026-05-05 01:46 | 16.83405 | 109.39616 | 25643 ft | 497 kts | 55° |
| 2026-05-05 01:46 | 16.85338 | 109.42618 | 25894 ft | 498 kts | 54° |
| 2026-05-05 01:46 | 16.87278 | 109.45611 | 26199 ft | 498 kts | 54° |
| 2026-05-05 01:47 | 16.89191 | 109.48565 | 26519 ft | 497 kts | 54° |
| 2026-05-05 01:47 | 16.91115 | 109.51564 | 26843 ft | 497 kts | 54° |
| 2026-05-05 01:47 | 16.93073 | 109.54593 | 27177 ft | 496 kts | 54° |
| 2026-05-05 01:47 | 16.95014 | 109.57573 | 27499 ft | 496 kts | 54° |
| 2026-05-05 01:48 | 16.96931 | 109.60524 | 27827 ft | 495 kts | 54° |
| 2026-05-05 01:48 | 16.98858 | 109.63501 | 28158 ft | 495 kts | 54° |
| 2026-05-05 01:48 | 17.00785 | 109.66485 | 28479 ft | 494 kts | 54° |
| 2026-05-05 01:48 | 17.02709 | 109.69468 | 28813 ft | 494 kts | 54° |
| 2026-05-05 01:49 | 17.03978 | 109.71439 | 29035 ft | 493 kts | 54° |
| 2026-05-05 01:49 | 17.05913 | 109.74456 | 29362 ft | 493 kts | 54° |
| 2026-05-05 01:49 | 17.07819 | 109.77433 | 29693 ft | 493 kts | 54° |
| 2026-05-05 01:49 | 17.09730 | 109.80410 | 30021 ft | 492 kts | 54° |
| 2026-05-05 01:50 | 17.11637 | 109.83377 | 30309 ft | 491 kts | 54° |
| 2026-05-05 01:50 | 17.13548 | 109.86336 | 30592 ft | 491 kts | 54° |
| 2026-05-05 01:50 | 17.15458 | 109.89286 | 30876 ft | 490 kts | 54° |
| 2026-05-05 01:50 | 17.17369 | 109.92245 | 31165 ft | 489 kts | 54° |
| 2026-05-05 01:51 | 17.19270 | 109.95198 | 31466 ft | 489 kts | 54° |
| 2026-05-05 01:51 | 17.21139 | 109.98112 | 31738 ft | 488 kts | 54° |
| 2026-05-05 01:51 | 17.23033 | 110.01056 | 32021 ft | 488 kts | 54° |
| 2026-05-05 01:51 | 17.24923 | 110.03994 | 32300 ft | 487 kts | 54° |
| 2026-05-05 01:52 | 17.26808 | 110.06941 | 32577 ft | 487 kts | 54° |
| 2026-05-05 01:52 | 17.28688 | 110.09879 | 32851 ft | 486 kts | 54° |
| 2026-05-05 01:52 | 17.30575 | 110.12815 | 33121 ft | 485 kts | 53° |
| 2026-05-05 01:52 | 17.32456 | 110.15745 | 33381 ft | 485 kts | 53° |
| 2026-05-05 01:53 | 17.34358 | 110.18711 | 33639 ft | 484 kts | 53° |
| 2026-05-05 01:53 | 17.36208 | 110.21599 | 33880 ft | 484 kts | 53° |
| 2026-05-05 01:53 | 17.38105 | 110.24563 | 34097 ft | 484 kts | 53° |
| 2026-05-05 01:53 | 17.39978 | 110.27490 | 34290 ft | 483 kts | 53° |
| 2026-05-05 01:54 | 17.41822 | 110.30374 | 34470 ft | 483 kts | 53° |
| 2026-05-05 01:54 | 17.43709 | 110.33293 | 34649 ft | 483 kts | 53° |
| 2026-05-05 01:54 | 17.45601 | 110.36204 | 34843 ft | 483 kts | 53° |
| 2026-05-05 01:54 | 17.47494 | 110.39110 | 34989 ft | 484 kts | 53° |
| 2026-05-05 01:55 | 17.51282 | 110.44938 | 35002 ft | 483 kts | 53° |
| 2026-05-05 01:55 | 17.55051 | 110.50766 | 34981 ft | 483 kts | 53° |
| 2026-05-05 01:56 | 17.58823 | 110.56599 | 34980 ft | 483 kts | 53° |
| 2026-05-05 01:56 | 17.62608 | 110.62433 | 34979 ft | 483 kts | 53° |
| 2026-05-05 01:57 | 17.66377 | 110.68264 | 34976 ft | 484 kts | 53° |
| 2026-05-05 01:57 | 17.70153 | 110.74104 | 34977 ft | 484 kts | 53° |
| 2026-05-05 01:58 | 17.73926 | 110.79951 | 34977 ft | 484 kts | 53° |
| 2026-05-05 01:58 | 17.77699 | 110.85809 | 34981 ft | 484 kts | 53° |
| 2026-05-05 01:59 | 17.81484 | 110.91676 | 34979 ft | 485 kts | 53° |
| 2026-05-05 01:59 | 17.85256 | 110.97536 | 34981 ft | 485 kts | 53° |
| 2026-05-05 02:00 | 17.89032 | 111.03414 | 34981 ft | 485 kts | 53° |
| 2026-05-05 02:00 | 17.92813 | 111.09283 | 34979 ft | 486 kts | 53° |
| 2026-05-05 02:01 | 17.96595 | 111.15171 | 34979 ft | 486 kts | 53° |
| 2026-05-05 02:01 | 18.00373 | 111.21060 | 34982 ft | 486 kts | 53° |
| 2026-05-05 02:02 | 18.04148 | 111.26971 | 34983 ft | 486 kts | 53° |
| 2026-05-05 02:02 | 18.07921 | 111.32875 | 34977 ft | 487 kts | 53° |
| 2026-05-05 02:03 | 18.11703 | 111.38775 | 34979 ft | 487 kts | 53° |
| 2026-05-05 02:03 | 18.15487 | 111.44681 | 34980 ft | 487 kts | 53° |
| 2026-05-05 02:04 | 18.19268 | 111.50603 | 34983 ft | 487 kts | 53° |
| 2026-05-05 02:04 | 18.23051 | 111.56528 | 34978 ft | 488 kts | 53° |
| 2026-05-05 02:05 | 18.26826 | 111.62454 | 34985 ft | 488 kts | 53° |
| 2026-05-05 02:05 | 18.30580 | 111.68358 | 34983 ft | 488 kts | 53° |
| 2026-05-05 02:06 | 18.34359 | 111.74291 | 34980 ft | 488 kts | 53° |
| 2026-05-05 02:06 | 18.38135 | 111.80227 | 34981 ft | 488 kts | 53° |
| 2026-05-05 02:07 | 18.41932 | 111.86216 | 34981 ft | 488 kts | 53° |
| 2026-05-05 02:07 | 18.45706 | 111.92162 | 34981 ft | 488 kts | 53° |
| 2026-05-05 02:08 | 18.49485 | 111.98122 | 34987 ft | 488 kts | 53° |
| 2026-05-05 02:08 | 18.53256 | 112.04079 | 34982 ft | 489 kts | 53° |
| 2026-05-05 02:09 | 18.57028 | 112.10037 | 34984 ft | 489 kts | 53° |
| 2026-05-05 02:09 | 18.60802 | 112.16004 | 34983 ft | 489 kts | 53° |
| 2026-05-05 02:10 | 18.64608 | 112.22002 | 34985 ft | 488 kts | 52° |
| 2026-05-05 02:10 | 18.66774 | 112.24729 | 34983 ft | 484 kts | 41° |
| 2026-05-05 02:10 | 18.69349 | 112.26977 | 34988 ft | 480 kts | 32° |
| 2026-05-05 02:11 | 18.74788 | 112.31043 | 34986 ft | 479 kts | 32° |
| 2026-05-05 02:11 | 18.80229 | 112.35109 | 34986 ft | 479 kts | 31° |
| 2026-05-05 02:12 | 18.88342 | 112.41202 | 34987 ft | 479 kts | 31° |
| 2026-05-05 02:13 | 18.93771 | 112.45298 | 34986 ft | 479 kts | 31° |
| 2026-05-05 02:13 | 18.99315 | 112.49167 | 34979 ft | 474 kts | 21° |
| 2026-05-05 02:13 | 19.02367 | 112.50401 | 34984 ft | 467 kts | 10° |
| 2026-05-05 02:14 | 19.05530 | 112.51087 | 34994 ft | 463 kts | 5° |
| 2026-05-05 02:14 | 19.11890 | 112.52174 | 34991 ft | 463 kts | 5° |
| 2026-05-05 02:15 | 19.18240 | 112.53289 | 34990 ft | 463 kts | 5° |
| 2026-05-05 02:15 | 19.24625 | 112.54467 | 34993 ft | 463 kts | 5° |
| 2026-05-05 02:16 | 19.30968 | 112.55631 | 34993 ft | 463 kts | 5° |
| 2026-05-05 02:16 | 19.37317 | 112.56784 | 34993 ft | 463 kts | 5° |
| 2026-05-05 02:17 | 19.43660 | 112.57944 | 34995 ft | 463 kts | 5° |
| 2026-05-05 02:17 | 19.50009 | 112.59105 | 34993 ft | 462 kts | 5° |
| 2026-05-05 02:18 | 19.56357 | 112.60261 | 34994 ft | 462 kts | 5° |
| 2026-05-05 02:18 | 19.62694 | 112.61419 | 35000 ft | 462 kts | 5° |
| 2026-05-05 02:19 | 19.69029 | 112.62576 | 34995 ft | 462 kts | 5° |
| 2026-05-05 02:19 | 19.75328 | 112.63728 | 34996 ft | 462 kts | 5° |
| 2026-05-05 02:20 | 19.81656 | 112.64892 | 34996 ft | 462 kts | 5° |
| 2026-05-05 02:20 | 19.87995 | 112.66057 | 35006 ft | 461 kts | 5° |
| 2026-05-05 02:21 | 19.94318 | 112.67217 | 35002 ft | 461 kts | 5° |
| 2026-05-05 02:21 | 20.00641 | 112.68378 | 34998 ft | 461 kts | 5° |
| 2026-05-05 02:22 | 20.06970 | 112.69546 | 35000 ft | 462 kts | 5° |
| 2026-05-05 02:22 | 20.13307 | 112.70710 | 35008 ft | 462 kts | 5° |
| 2026-05-05 02:23 | 20.19641 | 112.71880 | 35007 ft | 462 kts | 5° |
| 2026-05-05 02:23 | 20.25978 | 112.73049 | 35006 ft | 462 kts | 5° |
| 2026-05-05 02:24 | 20.32323 | 112.74216 | 35007 ft | 462 kts | 5° |
| 2026-05-05 02:24 | 20.38668 | 112.75382 | 35011 ft | 462 kts | 5° |
| 2026-05-05 02:25 | 20.43939 | 112.76354 | 35012 ft | 463 kts | 5° |
| 2026-05-05 02:25 | 20.51362 | 112.77723 | 35011 ft | 463 kts | 5° |
| 2026-05-05 02:26 | 20.56638 | 112.78698 | 35008 ft | 463 kts | 5° |
| 2026-05-05 02:26 | 20.62990 | 112.79868 | 35011 ft | 463 kts | 5° |
| 2026-05-05 02:27 | 20.69351 | 112.81039 | 35009 ft | 464 kts | 5° |
| 2026-05-05 02:27 | 20.75748 | 112.82221 | 35009 ft | 464 kts | 5° |
| 2026-05-05 02:28 | 20.82117 | 112.83407 | 35015 ft | 464 kts | 5° |
| 2026-05-05 02:28 | 20.88442 | 112.84582 | 35013 ft | 464 kts | 5° |
| 2026-05-05 02:29 | 20.94805 | 112.85766 | 35020 ft | 465 kts | 5° |
| 2026-05-05 02:29 | 21.01182 | 112.86944 | 35009 ft | 464 kts | 4° |
| 2026-05-05 02:30 | 21.07549 | 112.88140 | 35012 ft | 464 kts | 5° |
| 2026-05-05 02:30 | 21.13898 | 112.89323 | 34879 ft | 457 kts | 4° |
| 2026-05-05 02:30 | 21.17051 | 112.89900 | 33953 ft | 463 kts | 4° |
| 2026-05-05 02:31 | 21.20270 | 112.90490 | 32720 ft | 474 kts | 4° |
| 2026-05-05 02:31 | 21.23526 | 112.91185 | 31715 ft | 483 kts | 9° |
| 2026-05-05 02:31 | 21.26704 | 112.92439 | 30966 ft | 489 kts | 21° |
| 2026-05-05 02:31 | 21.29620 | 112.94366 | 30292 ft | 496 kts | 33° |
| 2026-05-05 02:32 | 21.32141 | 112.96922 | 29480 ft | 504 kts | 46° |
| 2026-05-05 02:32 | 21.34138 | 113.00033 | 28649 ft | 510 kts | 59° |
| 2026-05-05 02:32 | 21.35534 | 113.03533 | 27834 ft | 513 kts | 69° |
| 2026-05-05 02:32 | 21.36695 | 113.07160 | 26992 ft | 515 kts | 70° |
| 2026-05-05 02:33 | 21.37842 | 113.10803 | 26186 ft | 517 kts | 70° |
| 2026-05-05 02:33 | 21.39005 | 113.14442 | 25426 ft | 516 kts | 69° |
| 2026-05-05 02:33 | 21.40180 | 113.18087 | 24713 ft | 515 kts | 69° |
| 2026-05-05 02:33 | 21.41370 | 113.21702 | 23996 ft | 512 kts | 69° |
| 2026-05-05 02:34 | 21.42546 | 113.25303 | 23243 ft | 509 kts | 69° |
| 2026-05-05 02:34 | 21.43706 | 113.28875 | 22431 ft | 504 kts | 69° |
| 2026-05-05 02:34 | 21.44848 | 113.32423 | 21644 ft | 499 kts | 70° |
| 2026-05-05 02:34 | 21.45985 | 113.35922 | 20889 ft | 494 kts | 70° |
| 2026-05-05 02:35 | 21.47111 | 113.39380 | 20185 ft | 488 kts | 70° |
| 2026-05-05 02:35 | 21.48224 | 113.42786 | 19492 ft | 481 kts | 70° |
| 2026-05-05 02:35 | 21.49327 | 113.46160 | 18837 ft | 475 kts | 70° |
| 2026-05-05 02:35 | 21.50410 | 113.49482 | 18183 ft | 468 kts | 70° |
| 2026-05-05 02:36 | 21.51473 | 113.52765 | 17479 ft | 461 kts | 70° |
| 2026-05-05 02:36 | 21.52565 | 113.55973 | 16791 ft | 454 kts | 66° |
| 2026-05-05 02:36 | 21.54107 | 113.58888 | 16136 ft | 445 kts | 52° |
| 2026-05-05 02:36 | 21.56161 | 113.61327 | 15546 ft | 436 kts | 43° |
| 2026-05-05 02:37 | 21.58311 | 113.63590 | 14966 ft | 429 kts | 43° |
| 2026-05-05 02:37 | 21.60443 | 113.65818 | 14358 ft | 424 kts | 43° |
| 2026-05-05 02:37 | 21.62533 | 113.68019 | 13766 ft | 418 kts | 43° |
| 2026-05-05 02:37 | 21.64607 | 113.70205 | 13164 ft | 416 kts | 43° |
| 2026-05-05 02:38 | 21.66700 | 113.72295 | 12829 ft | 402 kts | 40° |
| 2026-05-05 02:38 | 21.68717 | 113.74266 | 12798 ft | 382 kts | 40° |
| 2026-05-05 02:38 | 21.70644 | 113.76154 | 12650 ft | 367 kts | 40° |
| 2026-05-05 02:38 | 21.72511 | 113.77977 | 12332 ft | 359 kts | 40° |
| 2026-05-05 02:39 | 21.74354 | 113.79772 | 11867 ft | 356 kts | 40° |
| 2026-05-05 02:39 | 21.76184 | 113.81562 | 11395 ft | 354 kts | 40° |
| 2026-05-05 02:39 | 21.78001 | 113.83340 | 11060 ft | 351 kts | 40° |
| 2026-05-05 02:39 | 21.79784 | 113.85086 | 10813 ft | 342 kts | 40° |
| 2026-05-05 02:40 | 21.81491 | 113.86754 | 10648 ft | 330 kts | 40° |
| 2026-05-05 02:40 | 21.83220 | 113.88358 | 10482 ft | 318 kts | 32° |
| 2026-05-05 02:40 | 21.85203 | 113.89308 | 10123 ft | 308 kts | 7° |
| 2026-05-05 02:40 | 21.87298 | 113.89267 | 9631 ft | 300 kts | 342° |
| 2026-05-05 02:41 | 21.89223 | 113.88456 | 9173 ft | 296 kts | 330° |
| 2026-05-05 02:41 | 21.91066 | 113.87469 | 8749 ft | 296 kts | 330° |
| 2026-05-05 02:41 | 21.92905 | 113.86493 | 8399 ft | 295 kts | 331° |
| 2026-05-05 02:41 | 21.94756 | 113.85536 | 7982 ft | 294 kts | 332° |
| 2026-05-05 02:42 | 21.96607 | 113.84604 | 7562 ft | 295 kts | 332° |
| 2026-05-05 02:42 | 21.98456 | 113.83678 | 7182 ft | 293 kts | 332° |
| 2026-05-05 02:42 | 22.00301 | 113.82761 | 6823 ft | 291 kts | 333° |
| 2026-05-05 02:42 | 22.02133 | 113.81853 | 6443 ft | 290 kts | 333° |
| 2026-05-05 02:43 | 22.03964 | 113.80940 | 6151 ft | 289 kts | 332° |
| 2026-05-05 02:43 | 22.05803 | 113.80017 | 5973 ft | 294 kts | 334° |
| 2026-05-05 02:43 | 22.07673 | 113.79089 | 5818 ft | 299 kts | 334° |
| 2026-05-05 02:43 | 22.09566 | 113.78152 | 5626 ft | 297 kts | 334° |
| 2026-05-05 02:44 | 22.11413 | 113.77227 | 5455 ft | 287 kts | 334° |
| 2026-05-05 02:44 | 22.13184 | 113.76345 | 5322 ft | 274 kts | 334° |
| 2026-05-05 02:44 | 22.14883 | 113.75499 | 5200 ft | 263 kts | 333° |
| 2026-05-05 02:44 | 22.16497 | 113.74689 | 5065 ft | 250 kts | 333° |
| 2026-05-05 02:45 | 22.18033 | 113.73923 | 4938 ft | 237 kts | 333° |
| 2026-05-05 02:45 | 22.19486 | 113.73197 | 4833 ft | 220 kts | 333° |
| 2026-05-05 02:45 | 22.20818 | 113.72532 | 4740 ft | 204 kts | 333° |
| 2026-05-05 02:45 | 22.22117 | 113.71890 | 4442 ft | 199 kts | 335° |
| 2026-05-05 02:46 | 22.23453 | 113.71645 | 4049 ft | 200 kts | 9° |
| 2026-05-05 02:46 | 22.24668 | 113.72329 | 3686 ft | 198 kts | 41° |
| 2026-05-05 02:46 | 22.25676 | 113.73327 | 3374 ft | 195 kts | 44° |
| 2026-05-05 02:46 | 22.26671 | 113.74291 | 3077 ft | 193 kts | 43° |
| 2026-05-05 02:47 | 22.27688 | 113.75255 | 2767 ft | 192 kts | 46° |
| 2026-05-05 02:47 | 22.28387 | 113.76426 | 2467 ft | 184 kts | 72° |
| 2026-05-05 02:47 | 22.28795 | 113.77723 | 2180 ft | 180 kts | 75° |
| 2026-05-05 02:47 | 22.29193 | 113.78993 | 1888 ft | 177 kts | 74° |
| 2026-05-05 02:48 | 22.29585 | 113.80222 | 1608 ft | 172 kts | 73° |
| 2026-05-05 02:48 | 22.29968 | 113.81413 | 1409 ft | 161 kts | 73° |
| 2026-05-05 02:48 | 22.30325 | 113.82525 | 1210 ft | 153 kts | 72° |
| 2026-05-05 02:48 | 22.30670 | 113.83603 | 988 ft | 151 kts | 73° |
| 2026-05-05 02:49 | 22.31012 | 113.84667 | 756 ft | 149 kts | 71° |
| 2026-05-05 02:49 | 22.31346 | 113.85707 | 552 ft | 145 kts | 72° |
| 2026-05-05 02:49 | 22.31676 | 113.86735 | 351 ft | 148 kts | 70° |
| 2026-05-05 02:49 | 22.32025 | 113.87811 | 202 ft | 149 kts | 71° |
| 2026-05-05 02:50 | 22.32358 | 113.88844 | 52 ft | 137 kts | 72° |
| 2026-05-05 02:50 | 22.32624 | 113.89672 | 43 ft | 96 kts | 71° |
| 2026-05-05 02:50 | 22.32782 | 113.90155 | 42 ft | 38 kts | 71° |
| 2026-05-05 02:50 | 22.32823 | 113.90418 | 42 ft | 36 kts | 92° |
| 2026-05-05 02:51 | 22.32787 | 113.90640 | 43 ft | 23 kts | 99° |
| 2026-05-05 02:51 | 22.32813 | 113.90804 | 43 ft | 23 kts | 67° |
| 2026-05-05 02:51 | 22.32871 | 113.90971 | 43 ft | 25 kts | 71° |
| 2026-05-05 02:51 | 22.32919 | 113.91153 | 43 ft | 26 kts | 69° |
| 2026-05-05 02:52 | 22.32986 | 113.91339 | 43 ft | 27 kts | 69° |
| 2026-05-05 02:52 | 22.33028 | 113.91459 | 43 ft | 28 kts | 69° |
| 2026-05-05 02:52 | 22.33057 | 113.91553 | 43 ft | 26 kts | 72° |
| 2026-05-05 02:52 | 22.33108 | 113.91723 | 41 ft | 24 kts | 71° |
| 2026-05-05 02:53 | 22.33134 | 113.91804 | 41 ft | 25 kts | 70° |
| 2026-05-05 02:53 | 22.33192 | 113.91984 | 42 ft | 25 kts | 71° |
| 2026-05-05 02:53 | 22.33208 | 113.92091 | 43 ft | 12 kts | 110° |
| 2026-05-05 02:53 | 22.33128 | 113.92135 | 43 ft | 14 kts | 164° |
| 2026-05-05 02:54 | 22.33029 | 113.92171 | 43 ft | 16 kts | 161° |
| 2026-05-05 02:54 | 22.32919 | 113.92211 | 43 ft | 18 kts | 161° |
| 2026-05-05 02:54 | 22.32798 | 113.92256 | 41 ft | 19 kts | 160° |
| 2026-05-05 02:54 | 22.32668 | 113.92306 | 42 ft | 21 kts | 161° |
| 2026-05-05 02:55 | 22.32527 | 113.92359 | 43 ft | 22 kts | 160° |
| 2026-05-05 02:55 | 22.32382 | 113.92415 | 42 ft | 21 kts | 160° |
| 2026-05-05 02:55 | 22.32274 | 113.92455 | 42 ft | 11 kts | 158° |
| 2026-05-05 02:55 | 22.32246 | 113.92504 | 42 ft | 12 kts | 91° |
| 2026-05-05 02:56 | 22.32272 | 113.92601 | 41 ft | 14 kts | 70° |
| 2026-05-05 02:56 | 22.32258 | 113.92650 | 41 ft | 8 kts | 147° |
| 2026-05-05 02:56 | 22.32203 | 113.92678 | 42 ft | 10 kts | 162° |
| 2026-05-05 02:56 | 22.32132 | 113.92702 | 42 ft | 12 kts | 162° |
| 2026-05-05 02:57 | 22.32050 | 113.92732 | 40 ft | 13 kts | 160° |
| 2026-05-05 02:57 | 22.31957 | 113.92768 | 42 ft | 15 kts | 160° |
| 2026-05-05 02:57 | 22.31860 | 113.92810 | 42 ft | 11 kts | 156° |
| 2026-05-05 02:57 | 22.31788 | 113.92792 | 42 ft | 13 kts | 233° |
| 2026-05-05 02:58 | 22.31759 | 113.92694 | 42 ft | 15 kts | 246° |
| 2026-05-05 02:58 | 22.31716 | 113.92585 | 42 ft | 17 kts | 252° |
| 2026-05-05 02:58 | 22.31681 | 113.92460 | 42 ft | 18 kts | 252° |
| 2026-05-05 02:58 | 22.31638 | 113.92326 | 42 ft | 20 kts | 250° |
| 2026-05-05 02:59 | 22.31588 | 113.92185 | 41 ft | 21 kts | 249° |
| 2026-05-05 02:59 | 22.31541 | 113.92041 | 42 ft | 20 kts | 251° |
| 2026-05-05 02:59 | 22.31493 | 113.91896 | 42 ft | 20 kts | 250° |
| 2026-05-05 02:59 | 22.31446 | 113.91744 | 42 ft | 22 kts | 252° |
| 2026-05-05 03:00 | 22.31394 | 113.91583 | 42 ft | 23 kts | 251° |
| 2026-05-05 03:00 | 22.31356 | 113.91475 | 43 ft | 12 kts | 233° |
| 2026-05-05 03:00 | 22.31270 | 113.91471 | 42 ft | 14 kts | 159° |
| 2026-05-05 03:00 | 22.31169 | 113.91509 | 42 ft | 16 kts | 161° |
| 2026-05-05 03:01 | 22.31094 | 113.91538 | 42 ft | 8 kts | 153° |
| 2026-05-05 03:01 | 22.31085 | 113.91600 | 41 ft | 9 kts | 70° |
| 2026-05-05 03:01 | 22.31091 | 113.91618 | 42 ft | 1 kts | 70° |
| 2026-05-05 03:01 | 22.31095 | 113.91630 | 42 ft | 3 kts | 70° |
| 2026-05-05 03:02 | 22.31100 | 113.91646 | 42 ft | 0 kts | 70° |